Harris, North Carolina
Current Conditions -  °F | °C
As of 7:55 AM on Saturday 25 Oct 2014 (Local Time) from KFQD Reporting Station
Clear Clear  
Wind Chill: 42°   Ceiling: Unl
Heat Index: 44°   Visibility: 10mi
Dew Point: 38°   Wind: 5mph
Humidity: 77%   Direction: 330°NNW
Pressure: 30.05"   Gusts: NA
Location:  35.24°N, 81.87°W
Report Text: KFQD 251155Z AUTO 33004KT 10SM CLR 07/03 A3005 RMK AO2 7//// T00680031 10094 20042
Loading
Personal Weather Stations






























Interactive Weather Map
Tropical Storm Tracking
New forecast layout! Learn more

10-Day Weather Forecast

Advertisements
Track Severe Weather on mobile